Airfield :
LOGIN :

Register | Disclaimer

   EN    FR    IT 

 










Legend :    VFR   Marginal VFR   IFR   Intensive IFR   Very Intensive IFR
Visi :
Ceiling :
>= 8 km
>= 3000ft
5 to 8 km
1000 to 3000 ft
1500m to 5 km
500 to 1000 ft
800 to 1500m
200 to 500 ft
< 800m
< 200 ft
Symbols :   Thunderstorms  Fog  Heavy snow  Heavy precipitations  Wind > 20 kt
SIGMETs :     Misc.  Thunderstorms  Icing  Turbulence  Mountain Waves  Volcanic Ashes






- Airport Elevation : 56 ft
- IATA code : ILY


EGPI - Islay

CURRENT METAR :
  • 071620Z 29011KT 260V320 9999 BKN012 16/14 Q1017

EXPIRED METARs :
  • 071550Z 29011KT 9999 BKN009 16/14 Q1016
  • 071520Z 29012KT 9999 BKN008 15/14 Q1016
  • 071450Z 28009KT 9999 SCT006 SCT048 15/15 Q1015
  • 071420Z 26007KT 230V290 6000 SCT003 SCT006 BKN027 15/15 Q1015
  • 071350Z 24004KT 4000 -DZ BR FEW003 SCT005 BKN015 15/15 Q1015
  • 071320Z 15013KT 120V180 3500 +RA BR FEW004 SCT015 BKN025 15/14 Q1014

TAF TAF EGPI
Valid from the 07 at 15:00 until the 08 at 00:00 UTC


071351Z 0715/0724 29009KT 9999 SCT020
TEMPO 0715/0716 6000 RA BKN010
PROB30
TEMPO 0715/0716 3000 RADZ +RA BKN005



MET'MAP, your aeronautical weather chart ! - Copyright ORBIFLY December 2007 - Disclaimer

ORBIFLY MET'MAP TEAM :

Programming & Development : Alexandra Zaïnal
Concept & original design : Baudouin d'Aumeries
Assistance for programming : Marc-Olivier Méhu
Technical & hardware support : Manuel Goepfert

Contact : metmap@orbifly.com




SOURCES & CREDITS :

   NOAA